createdAt,value
2022-10-30T00:00:41.526Z,26.92
2022-10-30T00:03:15.818Z,27.27
2022-10-30T00:05:44.067Z,29.25
2022-10-30T00:08:17.814Z,24.75
2022-10-30T00:10:45.571Z,28.00
2022-10-30T00:13:14.119Z,26.20
2022-10-30T00:15:47.732Z,26.30
2022-10-30T00:18:15.413Z,30.55
2022-10-30T00:20:42.238Z,21.25
2022-10-30T00:23:09.069Z,24.58
2022-10-30T00:25:36.750Z,25.02
2022-10-30T00:28:07.575Z,20.45
2022-10-30T00:30:35.637Z,23.83
2022-10-30T00:33:03.656Z,27.70
2022-10-30T00:35:31.483Z,27.50
2022-10-30T00:38:00.009Z,26.35
2022-10-30T00:40:27.085Z,25.08
2022-10-30T00:42:54.384Z,24.45
2022-10-30T00:45:21.430Z,23.52
2022-10-30T00:48:01.864Z,26.60
2022-10-30T00:50:34.866Z,23.33
2022-10-30T00:53:11.750Z,29.27
2022-10-30T00:55:45.169Z,26.83
2022-10-30T00:58:16.052Z,19.63
2022-10-30T01:00:49.523Z,22.63
2022-10-30T01:03:16.830Z,23.17
2022-10-30T01:05:48.273Z,24.67
2022-10-30T01:08:15.360Z,29.10
2022-10-30T01:10:42.593Z,20.02
2022-10-30T01:13:10.605Z,23.55
2022-10-30T01:15:50.330Z,21.90
2022-10-30T01:18:40.386Z,24.48
2022-10-30T01:21:33.917Z,20.70
2022-10-30T01:24:00.733Z,24.27
2022-10-30T01:26:46.703Z,24.50
2022-10-30T01:29:37.565Z,24.80
2022-10-30T01:32:11.919Z,19.75
2022-10-30T01:35:16.906Z,23.42
2022-10-30T01:38:02.457Z,24.40
2022-10-30T01:40:29.428Z,20.90
2022-10-30T01:42:57.665Z,26.30
2022-10-30T01:46:09.926Z,21.80
2022-10-30T01:48:53.053Z,22.05
2022-10-30T01:52:00.416Z,20.73
2022-10-30T01:54:41.046Z,21.58
2022-10-30T01:57:13.000Z,23.40
2022-10-30T01:59:48.591Z,23.58
2022-10-30T02:02:16.063Z,22.55
2022-10-30T02:04:44.181Z,21.33
2022-10-30T02:07:12.114Z,23.13
2022-10-30T02:09:40.367Z,27.35
2022-10-30T02:12:08.655Z,20.02
2022-10-30T02:14:43.473Z,23.02
2022-10-30T02:17:11.738Z,19.02
2022-10-30T02:19:38.735Z,20.58
2022-10-30T02:22:06.082Z,26.88
2022-10-30T02:24:33.065Z,27.30
2022-10-30T02:27:00.263Z,24.58
2022-10-30T02:29:27.333Z,22.50
2022-10-30T02:31:54.565Z,22.70
2022-10-30T02:34:21.565Z,20.15
2022-10-30T02:36:48.405Z,21.75
2022-10-30T02:39:15.252Z,22.40
2022-10-30T02:41:42.369Z,22.38
2022-10-30T02:44:09.199Z,24.80
2022-10-30T02:46:36.023Z,19.40
2022-10-30T02:49:02.973Z,21.00
2022-10-30T02:51:32.075Z,26.45
2022-10-30T02:54:00.283Z,23.70
2022-10-30T02:56:27.412Z,26.38
2022-10-30T02:58:55.939Z,24.20
2022-10-30T03:01:23.162Z,22.25
2022-10-30T03:03:50.070Z,23.30
2022-10-30T03:06:18.696Z,21.35
2022-10-30T03:08:45.763Z,24.87
2022-10-30T03:11:15.546Z,23.63
2022-10-30T03:13:43.930Z,20.00
2022-10-30T03:16:16.706Z,21.20
2022-10-30T03:18:43.619Z,23.15
2022-10-30T03:21:14.418Z,23.55
2022-10-30T03:23:41.276Z,23.38
2022-10-30T03:26:08.197Z,20.65
2022-10-30T03:28:35.423Z,23.05
2022-10-30T03:31:05.287Z,24.77
2022-10-30T03:33:32.652Z,21.92
2022-10-30T03:35:59.639Z,21.30
2022-10-30T03:38:26.732Z,25.87
2022-10-30T03:40:53.757Z,22.98
2022-10-30T03:43:21.256Z,20.65
2022-10-30T03:45:53.307Z,25.03
2022-10-30T03:48:21.336Z,26.67
2022-10-30T03:50:48.805Z,26.83
2022-10-30T03:53:15.794Z,25.60
2022-10-30T03:55:42.766Z,24.53
2022-10-30T03:58:10.546Z,21.88
2022-10-30T04:00:37.554Z,23.90
2022-10-30T04:03:08.483Z,23.83
2022-10-30T04:05:36.430Z,25.33
2022-10-30T04:08:07.446Z,23.63
2022-10-30T04:10:35.028Z,24.92
2022-10-30T04:13:04.560Z,25.88
2022-10-30T04:15:31.486Z,26.30
2022-10-30T04:17:58.910Z,23.33
2022-10-30T04:20:28.108Z,23.48
2022-10-30T04:22:59.876Z,22.10
2022-10-30T04:25:27.371Z,18.60
2022-10-30T04:27:54.433Z,22.98
2022-10-30T04:30:22.593Z,21.75
2022-10-30T04:32:50.787Z,24.17
2022-10-30T04:35:19.016Z,23.92
2022-10-30T04:37:59.825Z,21.45
2022-10-30T04:40:32.610Z,28.15
2022-10-30T04:43:00.634Z,24.70
2022-10-30T04:45:27.746Z,20.92
2022-10-30T04:48:04.802Z,20.83
2022-10-30T04:50:33.175Z,24.35
2022-10-30T04:53:06.460Z,28.07
2022-10-30T04:55:35.234Z,19.67
2022-10-30T04:58:03.134Z,27.27
2022-10-30T05:00:31.796Z,21.50
2022-10-30T05:03:00.737Z,26.10
2022-10-30T05:05:29.222Z,27.67
2022-10-30T05:07:56.571Z,23.35
2022-10-30T05:10:25.175Z,27.00
2022-10-30T05:12:54.435Z,25.53
2022-10-30T05:15:21.898Z,27.33
2022-10-30T05:17:53.029Z,23.20
2022-10-30T05:20:20.218Z,28.50
2022-10-30T05:22:53.625Z,28.25
2022-10-30T05:25:20.672Z,27.43
2022-10-30T05:27:47.730Z,29.00
2022-10-30T05:30:14.677Z,26.83
2022-10-30T05:32:41.438Z,25.77
2022-10-30T05:35:08.929Z,30.73
2022-10-30T05:37:36.026Z,26.77
2022-10-30T05:40:02.934Z,24.07
2022-10-30T05:42:29.780Z,34.30
2022-10-30T05:45:00.952Z,27.13
2022-10-30T05:47:28.837Z,24.75
2022-10-30T05:49:55.558Z,27.10
2022-10-30T05:52:22.420Z,24.33
2022-10-30T05:54:49.175Z,24.67
2022-10-30T05:57:15.966Z,26.50
2022-10-30T05:59:42.716Z,30.40
2022-10-30T06:02:09.505Z,28.87
2022-10-30T06:04:36.276Z,29.95
2022-10-30T06:07:03.074Z,24.33
2022-10-30T06:09:29.857Z,24.20
2022-10-30T06:11:56.774Z,25.48
2022-10-30T06:14:23.516Z,28.10
2022-10-30T06:16:50.261Z,27.77
2022-10-30T06:19:18.835Z,22.25
2022-10-30T06:21:46.729Z,31.77
2022-10-30T06:24:14.203Z,27.77
2022-10-30T06:26:41.373Z,27.20
2022-10-30T06:29:08.279Z,30.73
2022-10-30T06:31:35.116Z,33.35
2022-10-30T06:34:01.880Z,29.47
2022-10-30T06:36:28.602Z,29.95
2022-10-30T06:38:55.321Z,32.13
2022-10-30T06:41:26.133Z,30.73
2022-10-30T06:43:57.016Z,28.38
2022-10-30T06:46:27.004Z,37.83
2022-10-30T06:48:57.691Z,25.27
2022-10-30T06:51:24.802Z,28.33
2022-10-30T06:53:51.525Z,31.30
2022-10-30T06:56:18.283Z,29.58
2022-10-30T06:58:45.293Z,30.75
2022-10-30T07:01:12.129Z,32.72
2022-10-30T07:03:38.859Z,29.15
2022-10-30T07:06:05.906Z,30.35
2022-10-30T07:08:32.734Z,28.50
2022-10-30T07:10:59.609Z,25.88
2022-10-30T07:13:26.336Z,27.73
2022-10-30T07:15:53.129Z,26.33
2022-10-30T07:18:19.931Z,27.42
2022-10-30T07:20:46.771Z,27.58
2022-10-30T07:23:13.540Z,31.63
2022-10-30T07:25:40.275Z,23.42
2022-10-30T07:28:07.020Z,26.65
2022-10-30T07:30:33.774Z,21.73
2022-10-30T07:33:03.106Z,20.70
2022-10-30T07:35:31.171Z,20.95
2022-10-30T07:38:10.034Z,23.35
2022-10-30T07:40:36.917Z,22.80
2022-10-30T07:43:05.180Z,19.35
2022-10-30T07:45:32.802Z,19.67
2022-10-30T07:47:59.925Z,17.95
2022-10-30T07:50:27.502Z,16.67
2022-10-30T07:52:54.384Z,22.02
2022-10-30T07:55:21.169Z,20.35
2022-10-30T07:57:48.056Z,19.48
2022-10-30T08:00:15.457Z,17.35
2022-10-30T08:02:42.856Z,21.80
2022-10-30T08:05:11.139Z,21.67
2022-10-30T08:10:13.372Z,17.73
2022-10-30T08:12:41.920Z,17.77
2022-10-30T08:15:08.918Z,15.05
2022-10-30T08:17:42.960Z,17.70
2022-10-30T08:20:10.635Z,16.48
2022-10-30T08:22:51.264Z,16.00
2022-10-30T08:25:20.224Z,17.48
2022-10-30T08:28:01.728Z,12.63
2022-10-30T08:30:34.407Z,11.18
2022-10-30T08:33:04.161Z,12.57
2022-10-30T08:35:31.028Z,11.95
2022-10-30T08:38:00.997Z,10.10
2022-10-30T08:40:28.098Z,11.68
2022-10-30T08:42:56.599Z,9.57
2022-10-30T08:45:29.727Z,8.27
2022-10-30T08:47:59.891Z,11.00
2022-10-30T08:50:27.391Z,8.43
2022-10-30T08:52:54.861Z,9.95
2022-10-30T08:55:21.960Z,7.60
2022-10-30T08:57:49.357Z,7.20
2022-10-30T09:00:16.256Z,7.78
2022-10-30T09:02:43.325Z,7.85
2022-10-30T09:05:10.201Z,8.48
2022-10-30T09:07:36.936Z,8.25
2022-10-30T09:10:04.473Z,6.80
2022-10-30T09:12:31.292Z,5.88
2022-10-30T09:14:58.051Z,8.23
2022-10-30T09:17:24.874Z,11.73
2022-10-30T09:19:51.608Z,6.85
2022-10-30T09:22:18.459Z,7.88
2022-10-30T09:24:45.279Z,6.43
2022-10-30T09:27:12.149Z,6.13
2022-10-30T09:29:38.928Z,8.07
2022-10-30T09:32:10.148Z,6.18
2022-10-30T09:34:38.310Z,6.95
2022-10-30T09:37:05.256Z,5.53
2022-10-30T09:39:32.356Z,7.82
2022-10-30T09:42:19.075Z,4.80
2022-10-30T09:44:48.764Z,3.95
2022-10-30T09:47:35.155Z,6.18
2022-10-30T09:50:23.891Z,8.13
2022-10-30T09:53:31.734Z,5.25
2022-10-30T09:56:19.501Z,5.40
2022-10-30T09:59:13.613Z,5.15
2022-10-30T10:02:04.032Z,6.13
2022-10-30T10:04:41.415Z,4.95
2022-10-30T10:07:22.607Z,4.43
2022-10-30T10:09:54.217Z,3.67
2022-10-30T10:13:00.180Z,4.63
2022-10-30T10:15:51.724Z,3.90
2022-10-30T10:18:35.742Z,5.03
2022-10-30T10:21:15.862Z,4.03
2022-10-30T10:23:49.169Z,6.30
2022-10-30T10:26:47.746Z,6.07
2022-10-30T10:29:28.639Z,5.88
2022-10-30T10:32:13.181Z,32.08
2022-10-30T10:35:26.913Z,6.20
2022-10-30T10:38:23.378Z,5.47
2022-10-30T10:41:06.259Z,7.50
2022-10-30T10:44:03.744Z,6.07
2022-10-30T10:46:42.282Z,7.40
2022-10-30T10:49:39.135Z,6.20
2022-10-30T10:52:35.052Z,7.03
2022-10-30T10:55:06.741Z,6.28
2022-10-30T10:57:39.562Z,8.32
2022-10-30T11:00:25.578Z,5.53
2022-10-30T11:03:17.988Z,5.28
2022-10-30T11:06:32.712Z,6.10
2022-10-30T11:09:14.990Z,4.43
2022-10-30T11:11:43.058Z,4.78
2022-10-30T11:14:22.155Z,4.53
2022-10-30T11:17:15.949Z,6.85
2022-10-30T11:19:45.416Z,4.68
2022-10-30T11:22:34.323Z,5.80
2022-10-30T11:25:19.797Z,5.57
2022-10-30T11:27:59.007Z,5.65
2022-10-30T11:30:28.912Z,4.13
2022-10-30T11:32:57.325Z,5.90
2022-10-30T11:35:25.403Z,6.13
2022-10-30T11:38:13.872Z,3.80
2022-10-30T11:40:48.214Z,4.85
2022-10-30T11:43:20.151Z,5.90
2022-10-30T11:45:47.498Z,7.32
2022-10-30T11:48:29.817Z,9.52
2022-10-30T11:51:02.039Z,7.13
2022-10-30T11:53:35.232Z,6.13
2022-10-30T11:56:04.321Z,4.85
2022-10-30T11:58:37.413Z,2.85
2022-10-30T12:01:05.754Z,5.97
2022-10-30T12:03:40.819Z,4.43
2022-10-30T12:06:29.336Z,5.32
2022-10-30T12:09:11.020Z,4.38
2022-10-30T12:11:39.264Z,4.93
2022-10-30T12:14:06.562Z,5.82
2022-10-30T12:16:33.699Z,5.38
2022-10-30T12:19:06.717Z,6.13
2022-10-30T12:21:44.419Z,5.93
2022-10-30T12:24:30.364Z,8.13
2022-10-30T12:27:01.442Z,5.07
2022-10-30T12:33:04.558Z,11.80
2022-10-30T12:35:53.646Z,8.65
2022-10-30T12:38:48.037Z,5.20
2022-10-30T12:41:29.442Z,8.35
2022-10-30T12:43:59.033Z,5.22
2022-10-30T12:46:53.598Z,5.30
2022-10-30T12:49:26.366Z,4.63
2022-10-30T12:52:02.858Z,5.55
2022-10-30T12:54:51.997Z,4.55
2022-10-30T12:57:25.586Z,5.00
2022-10-30T13:00:02.528Z,3.58
2022-10-30T13:02:54.238Z,7.20
2022-10-30T13:05:40.149Z,3.83
2022-10-30T13:08:36.666Z,4.95
2022-10-30T13:11:12.295Z,4.15
2022-10-30T13:13:48.392Z,5.60
2022-10-30T13:16:26.579Z,4.82
2022-10-30T13:18:56.607Z,5.70
2022-10-30T13:22:13.284Z,5.57
2022-10-30T13:24:57.883Z,11.82
2022-10-30T13:27:38.823Z,6.40
2022-10-30T13:30:06.957Z,2.85
2022-10-30T13:32:54.453Z,4.97
2022-10-30T13:35:39.517Z,3.83
2022-10-30T13:38:32.447Z,2.60
2022-10-30T13:41:26.674Z,5.47
2022-10-30T13:44:08.655Z,3.17
2022-10-30T13:46:38.158Z,8.65
2022-10-30T13:49:27.187Z,5.60
2022-10-30T13:51:57.346Z,4.88
2022-10-30T13:54:40.897Z,4.72
2022-10-30T13:57:34.577Z,3.78
2022-10-30T14:00:15.429Z,4.40
2022-10-30T14:02:42.317Z,3.72
2022-10-30T14:05:15.404Z,5.72
2022-10-30T14:07:49.598Z,3.05
2022-10-30T14:10:24.647Z,2.92
2022-10-30T14:13:17.306Z,3.92
2022-10-30T14:15:46.440Z,3.13
2022-10-30T14:18:13.172Z,3.10
2022-10-30T14:20:49.193Z,2.90
2022-10-30T14:23:30.133Z,4.05
2022-10-30T14:26:03.146Z,3.20
2022-10-30T14:28:35.742Z,3.33
2022-10-30T14:31:20.143Z,3.88
2022-10-30T14:33:50.666Z,8.32
2022-10-30T14:36:38.911Z,6.50
2022-10-30T14:39:12.135Z,32.22
2022-10-30T14:42:00.994Z,116.47
2022-10-30T14:44:50.900Z,27.90
2022-10-30T14:47:52.534Z,12.93
2022-10-30T14:50:43.757Z,9.50
2022-10-30T14:53:33.393Z,7.03
2022-10-30T14:58:42.092Z,14.60
2022-10-30T15:01:24.152Z,15.38
2022-10-30T15:04:19.561Z,39.50
2022-10-30T15:07:22.689Z,28.52
2022-10-30T15:09:59.564Z,16.77
2022-10-30T15:12:37.707Z,16.23
2022-10-30T15:15:11.025Z,23.80
2022-10-30T15:17:41.430Z,18.77
2022-10-30T15:20:24.142Z,23.52
2022-10-30T15:22:57.609Z,24.15
2022-10-30T15:25:29.399Z,22.27
2022-10-30T15:27:58.007Z,21.58
2022-10-30T15:30:27.134Z,18.10
2022-10-30T15:32:54.390Z,35.10
2022-10-30T15:35:24.051Z,21.77
2022-10-30T15:38:10.070Z,19.42
2022-10-30T15:40:38.402Z,20.02
2022-10-30T15:43:10.506Z,20.48
2022-10-30T15:45:40.659Z,27.38
2022-10-30T15:48:07.396Z,24.80
2022-10-30T15:50:35.266Z,21.55
2022-10-30T15:53:02.572Z,31.63
2022-10-30T15:55:32.053Z,28.35
2022-10-30T15:58:04.614Z,21.67
2022-10-30T16:00:35.240Z,26.05
2022-10-30T16:03:16.818Z,24.25
2022-10-30T16:05:44.144Z,28.73
2022-10-30T16:08:22.502Z,27.70
2022-10-30T16:10:53.280Z,27.77
2022-10-30T16:13:25.355Z,30.67
2022-10-30T16:15:52.325Z,29.50
2022-10-30T16:18:23.716Z,29.05
2022-10-30T16:20:56.461Z,33.67
2022-10-30T16:23:24.393Z,34.80
2022-10-30T16:25:56.679Z,32.80
2022-10-30T16:28:32.280Z,31.58
2022-10-30T16:31:04.684Z,29.95
2022-10-30T16:33:33.553Z,28.20
2022-10-30T16:36:02.110Z,31.33
2022-10-30T16:38:37.373Z,33.27
2022-10-30T16:41:13.407Z,34.03
2022-10-30T16:44:04.146Z,37.03
2022-10-30T16:46:35.702Z,39.80
2022-10-30T16:49:08.252Z,39.63
2022-10-30T16:51:37.812Z,49.70
2022-10-30T16:54:04.765Z,51.37
2022-10-30T16:56:33.165Z,48.90
2022-10-30T16:59:13.467Z,50.20
2022-10-30T17:01:40.736Z,54.30
2022-10-30T17:06:44.597Z,54.67
2022-10-30T17:09:28.838Z,51.13
2022-10-30T17:12:21.566Z,52.43
2022-10-30T17:15:06.504Z,59.50
2022-10-30T17:17:41.136Z,66.87
2022-10-30T17:20:20.453Z,74.77
2022-10-30T17:23:03.494Z,78.63
2022-10-30T17:25:38.664Z,78.33
2022-10-30T17:28:06.554Z,80.27
2022-10-30T17:30:40.894Z,75.77
2022-10-30T17:33:36.193Z,76.67
2022-10-30T17:36:06.772Z,63.33
2022-10-30T17:38:33.659Z,60.17
2022-10-30T17:41:00.877Z,62.20
2022-10-30T17:43:34.076Z,77.37
2022-10-30T17:46:01.172Z,272.47
2022-10-30T17:48:29.436Z,505.57
2022-10-30T17:50:56.521Z,206.30
2022-10-30T17:53:25.272Z,100.83
2022-10-30T17:56:15.943Z,71.60
2022-10-30T17:58:42.711Z,66.03
2022-10-30T18:01:16.185Z,74.13
2022-10-30T18:03:42.990Z,69.03
2022-10-30T18:06:17.313Z,64.20
2022-10-30T18:08:47.860Z,59.13
2022-10-30T18:11:21.621Z,62.83
2022-10-30T18:13:49.968Z,63.33
2022-10-30T18:16:18.212Z,81.57
2022-10-30T18:18:45.543Z,79.30
2022-10-30T18:21:18.268Z,66.93
2022-10-30T18:23:53.695Z,65.60
2022-10-30T18:26:25.745Z,61.43
2022-10-30T18:28:53.144Z,56.80
2022-10-30T18:31:22.789Z,56.63
2022-10-30T18:33:50.291Z,64.10
2022-10-30T18:36:22.669Z,57.90
2022-10-30T18:38:49.760Z,59.40
2022-10-30T18:41:23.083Z,63.07
2022-10-30T18:43:50.597Z,116.33
2022-10-30T18:46:17.613Z,161.97
2022-10-30T18:48:45.597Z,176.67
2022-10-30T18:51:24.028Z,221.97
2022-10-30T18:53:51.918Z,149.23
2022-10-30T18:56:24.204Z,128.70
2022-10-30T18:58:55.007Z,125.20
2022-10-30T19:01:26.912Z,144.33
2022-10-30T19:03:53.778Z,134.17
2022-10-30T19:06:23.162Z,118.10
2022-10-30T19:08:50.039Z,115.40
2022-10-30T19:11:24.052Z,105.73
2022-10-30T19:13:52.925Z,95.47
2022-10-30T19:16:21.334Z,84.97
2022-10-30T19:18:48.755Z,87.97
2022-10-30T19:21:25.493Z,82.10
2022-10-30T19:23:54.138Z,90.70
2022-10-30T19:26:21.071Z,81.77
2022-10-30T19:28:47.908Z,77.87
2022-10-30T19:31:17.387Z,74.67
2022-10-30T19:33:45.023Z,84.83
2022-10-30T19:36:47.422Z,90.27
2022-10-30T19:39:17.888Z,103.07
2022-10-30T19:41:46.079Z,94.57
2022-10-30T19:44:12.900Z,92.33
2022-10-30T19:46:39.736Z,105.47
2022-10-30T19:49:18.695Z,81.70
2022-10-30T19:51:46.596Z,82.17
2022-10-30T19:54:13.739Z,79.17
2022-10-30T19:56:43.015Z,105.50
2022-10-30T19:59:11.707Z,212.23
2022-10-30T20:01:38.784Z,216.37
2022-10-30T20:04:05.704Z,192.73
2022-10-30T20:06:32.764Z,199.57
2022-10-30T20:09:02.476Z,186.97
2022-10-30T20:11:30.115Z,157.50
2022-10-30T20:13:56.833Z,142.30
2022-10-30T20:16:23.957Z,137.73
2022-10-30T20:18:50.993Z,135.47
2022-10-30T20:21:19.689Z,135.07
2022-10-30T20:23:46.905Z,130.60
2022-10-30T20:26:28.329Z,128.57
2022-10-30T20:28:56.098Z,139.00
2022-10-30T20:31:23.252Z,130.73
2022-10-30T20:33:51.096Z,127.97
2022-10-30T20:36:17.906Z,115.67
2022-10-30T20:38:44.868Z,118.90
2022-10-30T20:41:30.295Z,132.00
2022-10-30T20:43:57.269Z,133.23
2022-10-30T20:46:24.110Z,129.97
2022-10-30T20:48:50.965Z,125.50
2022-10-30T20:51:17.847Z,113.63
2022-10-30T20:53:44.730Z,97.43
2022-10-30T20:56:12.731Z,100.07
2022-10-30T20:58:40.110Z,96.50
2022-10-30T21:01:07.104Z,90.07
2022-10-30T21:03:34.247Z,88.63
2022-10-30T21:06:02.338Z,75.50
2022-10-30T21:08:33.907Z,78.87
2022-10-30T21:11:06.185Z,75.70
2022-10-30T21:13:36.669Z,82.73
2022-10-30T21:16:07.054Z,76.63
2022-10-30T21:18:34.015Z,81.77
2022-10-30T21:21:05.226Z,90.00
2022-10-30T21:23:32.200Z,85.70
2022-10-30T21:26:05.077Z,84.90
2022-10-30T21:28:32.077Z,80.60
2022-10-30T21:31:04.337Z,87.47
2022-10-30T21:33:35.126Z,81.13
2022-10-30T21:36:11.712Z,85.10
2022-10-30T21:38:42.104Z,85.07
2022-10-30T21:41:11.085Z,83.07
2022-10-30T21:43:37.981Z,89.73
2022-10-30T21:46:09.900Z,90.97
2022-10-30T21:48:37.214Z,93.23
2022-10-30T21:51:12.706Z,88.17
2022-10-30T21:53:40.270Z,93.30
2022-10-30T21:56:09.783Z,92.30
2022-10-30T21:58:39.043Z,91.53
2022-10-30T22:01:07.103Z,94.43
2022-10-30T22:03:34.236Z,97.40
2022-10-30T22:06:07.426Z,94.67
2022-10-30T22:08:35.075Z,85.23
2022-10-30T22:11:06.470Z,81.67
2022-10-30T22:13:34.138Z,98.53
2022-10-30T22:16:01.462Z,89.63
2022-10-30T22:18:28.928Z,84.77
2022-10-30T22:21:06.978Z,85.63
2022-10-30T22:23:35.570Z,75.07
2022-10-30T22:26:05.144Z,106.23
2022-10-30T22:28:33.474Z,98.37
2022-10-30T22:31:05.905Z,96.20
2022-10-30T22:33:33.398Z,96.60
2022-10-30T22:36:09.092Z,104.50
2022-10-30T22:38:36.138Z,129.70
2022-10-30T22:41:18.135Z,129.43
2022-10-30T22:43:46.770Z,123.63
2022-10-30T22:46:15.668Z,132.83
2022-10-30T22:48:43.037Z,104.63
2022-10-30T22:51:15.161Z,96.40
2022-10-30T22:53:45.688Z,108.63
2022-10-30T22:56:21.209Z,109.13
2022-10-30T22:58:49.614Z,84.73
2022-10-30T23:01:25.394Z,84.13
2022-10-30T23:03:54.730Z,81.17
2022-10-30T23:06:22.040Z,77.23
2022-10-30T23:08:51.336Z,72.20
2022-10-30T23:11:18.142Z,64.57
2022-10-30T23:13:47.922Z,69.53
2022-10-30T23:16:17.473Z,68.77
2022-10-30T23:18:45.117Z,64.10
2022-10-30T23:21:15.821Z,65.20
2022-10-30T23:23:43.574Z,63.07
2022-10-30T23:26:26.177Z,61.00
2022-10-30T23:28:54.988Z,55.80
2022-10-30T23:31:36.594Z,58.87
2022-10-30T23:34:06.790Z,54.57
2022-10-30T23:36:34.646Z,55.40
2022-10-30T23:39:03.438Z,50.43
2022-10-30T23:41:32.478Z,47.77
2022-10-30T23:44:01.656Z,49.20
2022-10-30T23:46:29.001Z,42.50
2022-10-30T23:48:56.450Z,43.40
2022-10-30T23:51:23.731Z,39.77
2022-10-30T23:53:52.151Z,40.00
2022-10-30T23:56:19.389Z,47.60
2022-10-30T23:58:48.150Z,41.13
